sensor_id;sensor_type;location;lat;lon;timestamp;pressure;altitude;pressure_sealevel;temperature;humidity
53514;BME280;39768;54.148;12.174;2023-05-08T00:01:00;102633.69;;;12.39;64.30
53514;BME280;39768;54.148;12.174;2023-05-08T00:05:01;102633.59;;;12.27;65.10
53514;BME280;39768;54.148;12.174;2023-05-08T00:09:03;102634.38;;;12.18;65.88
53514;BME280;39768;54.148;12.174;2023-05-08T00:13:05;102634.47;;;12.26;65.56
53514;BME280;39768;54.148;12.174;2023-05-08T00:17:07;102642.16;;;11.97;68.49
53514;BME280;39768;54.148;12.174;2023-05-08T00:21:08;102624.47;;;12.05;67.90
53514;BME280;39768;54.148;12.174;2023-05-08T00:25:10;102629.72;;;11.96;67.99
53514;BME280;39768;54.148;12.174;2023-05-08T00:29:12;102621.00;;;12.12;67.51
53514;BME280;39768;54.148;12.174;2023-05-08T00:33:13;102638.66;;;12.04;68.13
53514;BME280;39768;54.148;12.174;2023-05-08T00:37:15;102639.56;;;12.02;68.86
53514;BME280;39768;54.148;12.174;2023-05-08T00:41:17;102635.16;;;12.08;68.63
53514;BME280;39768;54.148;12.174;2023-05-08T00:45:19;102636.50;;;11.73;70.88
53514;BME280;39768;54.148;12.174;2023-05-08T00:49:21;102642.69;;;11.69;72.02
53514;BME280;39768;54.148;12.174;2023-05-08T00:53:24;102633.13;;;11.83;69.53
53514;BME280;39768;54.148;12.174;2023-05-08T00:57:29;102638.75;;;12.10;66.96
53514;BME280;39768;54.148;12.174;2023-05-08T01:01:33;102654.63;;;12.04;67.10
53514;BME280;39768;54.148;12.174;2023-05-08T01:05:35;102655.25;;;11.80;69.79
53514;BME280;39768;54.148;12.174;2023-05-08T01:09:37;102661.81;;;12.11;67.11
53514;BME280;39768;54.148;12.174;2023-05-08T01:13:49;102655.47;;;11.97;69.43
53514;BME280;39768;54.148;12.174;2023-05-08T01:27:16;102655.50;;;12.03;68.38
53514;BME280;39768;54.148;12.174;2023-05-08T01:35:58;102652.88;;;12.02;68.09
53514;BME280;39768;54.148;12.174;2023-05-08T01:40:11;102651.84;;;11.92;67.49
53514;BME280;39768;54.148;12.174;2023-05-08T01:44:20;102664.06;;;11.76;69.59
53514;BME280;39768;54.148;12.174;2023-05-08T01:48:30;102665.72;;;11.66;70.13
53514;BME280;39768;54.148;12.174;2023-05-08T01:52:42;102672.78;;;11.66;70.30
53514;BME280;39768;54.148;12.174;2023-05-08T01:56:47;102667.56;;;11.74;70.14
53514;BME280;39768;54.148;12.174;2023-05-08T02:00:49;102672.69;;;11.58;69.88
53514;BME280;39768;54.148;12.174;2023-05-08T02:04:52;102671.22;;;11.79;70.06
53514;BME280;39768;54.148;12.174;2023-05-08T02:08:54;102672.06;;;11.76;69.55
53514;BME280;39768;54.148;12.174;2023-05-08T02:12:58;102674.53;;;11.64;69.78
53514;BME280;39768;54.148;12.174;2023-05-08T02:17:02;102671.06;;;11.68;69.52
53514;BME280;39768;54.148;12.174;2023-05-08T02:21:07;102669.47;;;11.17;69.63
53514;BME280;39768;54.148;12.174;2023-05-08T02:25:12;102669.66;;;11.31;68.79
53514;BME280;39768;54.148;12.174;2023-05-08T02:29:16;102669.50;;;11.20;68.97
53514;BME280;39768;54.148;12.174;2023-05-08T02:33:18;102672.94;;;10.57;72.46
53514;BME280;39768;54.148;12.174;2023-05-08T02:37:21;102674.19;;;10.79;71.73
53514;BME280;39768;54.148;12.174;2023-05-08T02:41:29;102674.50;;;10.00;78.77
53514;BME280;39768;54.148;12.174;2023-05-08T02:45:39;102673.97;;;10.17;80.43
53514;BME280;39768;54.148;12.174;2023-05-08T02:49:55;102669.84;;;10.84;74.99
53514;BME280;39768;54.148;12.174;2023-05-08T02:54:09;102669.22;;;11.01;71.91
53514;BME280;39768;54.148;12.174;2023-05-08T02:58:21;102684.00;;;10.85;71.65
53514;BME280;39768;54.148;12.174;2023-05-08T03:02:32;102677.69;;;10.77;71.69
53514;BME280;39768;54.148;12.174;2023-05-08T03:06:40;102679.22;;;10.63;73.47
53514;BME280;39768;54.148;12.174;2023-05-08T03:10:45;102675.00;;;10.25;74.61
53514;BME280;39768;54.148;12.174;2023-05-08T03:15:01;102663.91;;;10.46;74.48
53514;BME280;39768;54.148;12.174;2023-05-08T03:19:07;102668.59;;;10.63;75.43
53514;BME280;39768;54.148;12.174;2023-05-08T03:23:12;102666.53;;;10.45;75.41
53514;BME280;39768;54.148;12.174;2023-05-08T03:27:16;102667.72;;;9.70;76.86
53514;BME280;39768;54.148;12.174;2023-05-08T03:31:20;102670.78;;;9.09;84.88
53514;BME280;39768;54.148;12.174;2023-05-08T03:35:23;102667.06;;;9.82;76.37
53514;BME280;39768;54.148;12.174;2023-05-08T03:39:26;102667.88;;;9.78;74.84
53514;BME280;39768;54.148;12.174;2023-05-08T03:43:29;102672.56;;;9.10;79.23
53514;BME280;39768;54.148;12.174;2023-05-08T03:47:34;102668.09;;;9.88;78.73
53514;BME280;39768;54.148;12.174;2023-05-08T03:51:38;102670.84;;;9.95;76.45
53514;BME280;39768;54.148;12.174;2023-05-08T03:55:41;102668.47;;;9.65;77.57
53514;BME280;39768;54.148;12.174;2023-05-08T04:04:29;102670.94;;;9.55;83.54
53514;BME280;39768;54.148;12.174;2023-05-08T04:08:40;102676.81;;;10.27;79.98
53514;BME280;39768;54.148;12.174;2023-05-08T04:12:56;102672.50;;;9.88;82.43
53514;BME280;39768;54.148;12.174;2023-05-08T04:17:05;102674.31;;;10.34;80.91
53514;BME280;39768;54.148;12.174;2023-05-08T04:21:10;102665.72;;;12.45;68.63
53514;BME280;39768;54.148;12.174;2023-05-08T04:25:16;102675.44;;;15.97;51.48
53514;BME280;39768;54.148;12.174;2023-05-08T04:29:19;102680.81;;;17.15;47.32
53514;BME280;39768;54.148;12.174;2023-05-08T04:33:22;102679.16;;;15.66;48.35
53514;BME280;39768;54.148;12.174;2023-05-08T04:37:28;102682.44;;;18.06;43.80
53514;BME280;39768;54.148;12.174;2023-05-08T04:41:33;102684.81;;;19.81;41.05
53514;BME280;39768;54.148;12.174;2023-05-08T04:45:37;102691.31;;;20.88;38.52
53514;BME280;39768;54.148;12.174;2023-05-08T04:49:39;102711.25;;;21.17;37.70
53514;BME280;39768;54.148;12.174;2023-05-08T04:53:41;102704.94;;;21.18;37.28
53514;BME280;39768;54.148;12.174;2023-05-08T04:57:42;102702.97;;;22.19;35.96
53514;BME280;39768;54.148;12.174;2023-05-08T05:01:46;102702.78;;;22.25;35.75
53514;BME280;39768;54.148;12.174;2023-05-08T05:05:48;102702.44;;;22.63;34.87
53514;BME280;39768;54.148;12.174;2023-05-08T05:09:49;102709.81;;;23.12;34.19
53514;BME280;39768;54.148;12.174;2023-05-08T05:13:51;102723.78;;;23.27;33.85
53514;BME280;39768;54.148;12.174;2023-05-08T05:17:52;102717.13;;;22.84;34.51
53514;BME280;39768;54.148;12.174;2023-05-08T05:21:54;102717.81;;;20.72;38.31
53514;BME280;39768;54.148;12.174;2023-05-08T05:26:01;102710.91;;;18.82;42.14
53514;BME280;39768;54.148;12.174;2023-05-08T05:30:04;102720.31;;;19.09;42.85
53514;BME280;39768;54.148;12.174;2023-05-08T05:34:07;102706.66;;;17.23;45.03
53514;BME280;39768;54.148;12.174;2023-05-08T05:38:09;102703.81;;;17.40;46.06
53514;BME280;39768;54.148;12.174;2023-05-08T05:42:11;102714.66;;;16.10;50.44
53514;BME280;39768;54.148;12.174;2023-05-08T05:46:14;102720.09;;;15.89;50.77
53514;BME280;39768;54.148;12.174;2023-05-08T05:50:16;102718.06;;;16.44;50.46
53514;BME280;39768;54.148;12.174;2023-05-08T05:54:19;102705.81;;;15.88;51.39
53514;BME280;39768;54.148;12.174;2023-05-08T05:58:21;102715.69;;;15.80;50.43
53514;BME280;39768;54.148;12.174;2023-05-08T06:02:23;102710.13;;;16.21;51.06
53514;BME280;39768;54.148;12.174;2023-05-08T06:06:25;102714.78;;;15.88;49.38
53514;BME280;39768;54.148;12.174;2023-05-08T06:10:27;102721.94;;;15.85;49.57
53514;BME280;39768;54.148;12.174;2023-05-08T06:14:29;102722.53;;;16.41;48.42
53514;BME280;39768;54.148;12.174;2023-05-08T06:18:30;102720.63;;;16.61;49.14
53514;BME280;39768;54.148;12.174;2023-05-08T06:22:32;102727.81;;;16.50;47.56
53514;BME280;39768;54.148;12.174;2023-05-08T06:26:34;102724.88;;;16.91;47.02
53514;BME280;39768;54.148;12.174;2023-05-08T06:30:36;102714.69;;;16.06;48.35
53514;BME280;39768;54.148;12.174;2023-05-08T06:34:37;102719.88;;;16.38;47.33
53514;BME280;39768;54.148;12.174;2023-05-08T06:38:39;102715.13;;;16.78;47.73
53514;BME280;39768;54.148;12.174;2023-05-08T06:42:40;102717.91;;;16.69;46.38
53514;BME280;39768;54.148;12.174;2023-05-08T06:46:43;102713.03;;;17.15;46.46
53514;BME280;39768;54.148;12.174;2023-05-08T06:50:44;102711.19;;;15.92;46.47
53514;BME280;39768;54.148;12.174;2023-05-08T06:54:47;102711.38;;;17.02;46.57
53514;BME280;39768;54.148;12.174;2023-05-08T06:58:48;102714.09;;;16.97;44.76
53514;BME280;39768;54.148;12.174;2023-05-08T07:03:05;102704.84;;;17.27;43.60
53514;BME280;39768;54.148;12.174;2023-05-08T07:07:06;102706.78;;;17.14;42.88
53514;BME280;39768;54.148;12.174;2023-05-08T07:11:09;102697.81;;;17.17;43.55
53514;BME280;39768;54.148;12.174;2023-05-08T07:15:10;102706.28;;;17.60;42.52
53514;BME280;39768;54.148;12.174;2023-05-08T07:19:26;102688.63;;;17.38;42.53
53514;BME280;39768;54.148;12.174;2023-05-08T07:23:28;102695.94;;;18.64;39.65
53514;BME280;39768;54.148;12.174;2023-05-08T07:27:29;102683.56;;;18.53;40.40
53514;BME280;39768;54.148;12.174;2023-05-08T07:31:31;102686.47;;;18.38;40.66
53514;BME280;39768;54.148;12.174;2023-05-08T07:35:32;102686.28;;;17.85;39.64
53514;BME280;39768;54.148;12.174;2023-05-08T07:39:34;102692.16;;;18.15;38.90
53514;BME280;39768;54.148;12.174;2023-05-08T07:43:36;102690.78;;;18.49;37.88
53514;BME280;39768;54.148;12.174;2023-05-08T07:47:38;102689.41;;;18.21;37.74
53514;BME280;39768;54.148;12.174;2023-05-08T07:51:48;102680.00;;;17.88;37.78
53514;BME280;39768;54.148;12.174;2023-05-08T07:55:50;102691.63;;;17.88;37.50
53514;BME280;39768;54.148;12.174;2023-05-08T07:59:52;102677.81;;;18.17;38.26
53514;BME280;39768;54.148;12.174;2023-05-08T08:03:53;102673.75;;;18.47;37.66
53514;BME280;39768;54.148;12.174;2023-05-08T08:07:55;102680.31;;;18.28;36.19
53514;BME280;39768;54.148;12.174;2023-05-08T08:11:57;102687.13;;;18.53;35.89
53514;BME280;39768;54.148;12.174;2023-05-08T08:15:59;102666.19;;;18.15;36.83
53514;BME280;39768;54.148;12.174;2023-05-08T08:20:01;102689.44;;;18.78;35.90
53514;BME280;39768;54.148;12.174;2023-05-08T08:24:03;102687.53;;;18.84;36.36
53514;BME280;39768;54.148;12.174;2023-05-08T08:28:04;102677.53;;;18.91;37.68
53514;BME280;39768;54.148;12.174;2023-05-08T08:32:06;102680.75;;;18.57;37.04
53514;BME280;39768;54.148;12.174;2023-05-08T08:36:14;102692.44;;;18.59;35.96
53514;BME280;39768;54.148;12.174;2023-05-08T08:40:18;102682.94;;;18.91;37.12
53514;BME280;39768;54.148;12.174;2023-05-08T08:44:20;102681.78;;;19.04;36.54
53514;BME280;39768;54.148;12.174;2023-05-08T08:48:27;102676.66;;;18.33;37.24
53514;BME280;39768;54.148;12.174;2023-05-08T08:56:43;102677.25;;;19.55;35.53
53514;BME280;39768;54.148;12.174;2023-05-08T09:00:45;102682.09;;;19.36;35.03
53514;BME280;39768;54.148;12.174;2023-05-08T09:04:48;102679.22;;;20.30;34.99
53514;BME280;39768;54.148;12.174;2023-05-08T09:08:50;102672.53;;;20.08;34.02
53514;BME280;39768;54.148;12.174;2023-05-08T09:12:55;102677.72;;;20.17;34.08
53514;BME280;39768;54.148;12.174;2023-05-08T09:16:57;102673.34;;;19.24;34.30
53514;BME280;39768;54.148;12.174;2023-05-08T09:20:58;102677.72;;;20.56;33.90
53514;BME280;39768;54.148;12.174;2023-05-08T09:25:02;102676.34;;;21.09;33.14
53514;BME280;39768;54.148;12.174;2023-05-08T09:29:18;102676.97;;;20.49;32.87
53514;BME280;39768;54.148;12.174;2023-05-08T09:33:22;102659.81;;;20.13;33.21
53514;BME280;39768;54.148;12.174;2023-05-08T09:37:25;102682.09;;;20.61;32.92
53514;BME280;39768;54.148;12.174;2023-05-08T09:41:27;102656.75;;;21.01;31.48
53514;BME280;39768;54.148;12.174;2023-05-08T09:45:30;102648.22;;;20.84;31.81
53514;BME280;39768;54.148;12.174;2023-05-08T09:49:32;102659.78;;;20.89;32.50
53514;BME280;39768;54.148;12.174;2023-05-08T09:53:34;102661.06;;;21.42;31.10
53514;BME280;39768;54.148;12.174;2023-05-08T09:57:38;102650.88;;;21.52;31.17
53514;BME280;39768;54.148;12.174;2023-05-08T10:01:40;102658.09;;;21.19;31.08
53514;BME280;39768;54.148;12.174;2023-05-08T10:05:41;102656.34;;;21.16;31.17
53514;BME280;39768;54.148;12.174;2023-05-08T10:09:57;102662.09;;;20.68;29.95
53514;BME280;39768;54.148;12.174;2023-05-08T10:13:59;102644.66;;;20.82;31.18
53514;BME280;39768;54.148;12.174;2023-05-08T10:18:06;102644.81;;;21.09;30.43
53514;BME280;39768;54.148;12.174;2023-05-08T10:22:10;102638.38;;;20.81;31.57
53514;BME280;39768;54.148;12.174;2023-05-08T10:26:15;102643.75;;;22.09;32.34
53514;BME280;39768;54.148;12.174;2023-05-08T10:30:18;102643.47;;;21.58;31.38
53514;BME280;39768;54.148;12.174;2023-05-08T10:34:26;102639.00;;;21.57;30.52
53514;BME280;39768;54.148;12.174;2023-05-08T10:38:29;102636.47;;;21.51;30.87
53514;BME280;39768;54.148;12.174;2023-05-08T10:42:32;102633.47;;;21.91;31.07
53514;BME280;39768;54.148;12.174;2023-05-08T10:46:42;102617.09;;;21.37;30.95
53514;BME280;39768;54.148;12.174;2023-05-08T10:50:55;102628.72;;;21.99;31.04
53514;BME280;39768;54.148;12.174;2023-05-08T10:55:21;102618.16;;;21.90;30.82
53514;BME280;39768;54.148;12.174;2023-05-08T10:59:24;102628.47;;;22.35;30.36
53514;BME280;39768;54.148;12.174;2023-05-08T11:03:28;102627.03;;;21.95;30.61
53514;BME280;39768;54.148;12.174;2023-05-08T11:07:53;102616.22;;;21.95;30.13
53514;BME280;39768;54.148;12.174;2023-05-08T11:16:04;102610.22;;;22.68;30.09
53514;BME280;39768;54.148;12.174;2023-05-08T11:20:11;102602.16;;;22.66;31.67
53514;BME280;39768;54.148;12.174;2023-05-08T11:24:14;102604.53;;;22.23;29.93
53514;BME280;39768;54.148;12.174;2023-05-08T11:28:16;102589.06;;;22.26;30.23
53514;BME280;39768;54.148;12.174;2023-05-08T11:32:17;102583.16;;;22.13;29.70
53514;BME280;39768;54.148;12.174;2023-05-08T11:36:19;102589.81;;;22.03;29.55
53514;BME280;39768;54.148;12.174;2023-05-08T11:44:45;102581.13;;;22.22;29.64
53514;BME280;39768;54.148;12.174;2023-05-08T11:48:57;102576.50;;;22.78;30.50
53514;BME280;39768;54.148;12.174;2023-05-08T11:53:00;102575.94;;;22.93;28.65
53514;BME280;39768;54.148;12.174;2023-05-08T11:57:02;102568.44;;;22.24;28.77
53514;BME280;39768;54.148;12.174;2023-05-08T12:01:04;102567.16;;;22.07;29.60
53514;BME280;39768;54.148;12.174;2023-05-08T12:05:07;102568.72;;;23.17;27.70
53514;BME280;39768;54.148;12.174;2023-05-08T12:09:17;102563.50;;;22.61;27.89
53514;BME280;39768;54.148;12.174;2023-05-08T12:13:20;102561.16;;;22.26;28.59
53514;BME280;39768;54.148;12.174;2023-05-08T12:17:22;102557.16;;;23.60;28.67
53514;BME280;39768;54.148;12.174;2023-05-08T12:21:24;102565.59;;;23.52;27.31
53514;BME280;39768;54.148;12.174;2023-05-08T12:25:26;102560.66;;;23.15;27.50
53514;BME280;39768;54.148;12.174;2023-05-08T12:29:27;102552.13;;;23.26;28.13
53514;BME280;39768;54.148;12.174;2023-05-08T12:33:29;102566.28;;;23.81;27.93
53514;BME280;39768;54.148;12.174;2023-05-08T12:37:31;102561.38;;;24.12;28.37
53514;BME280;39768;54.148;12.174;2023-05-08T12:41:32;102552.28;;;24.13;27.55
53514;BME280;39768;54.148;12.174;2023-05-08T12:45:38;102553.22;;;23.90;28.16
53514;BME280;39768;54.148;12.174;2023-05-08T12:49:40;102554.84;;;23.49;25.98
53514;BME280;39768;54.148;12.174;2023-05-08T12:53:44;102557.94;;;23.64;27.00
53514;BME280;39768;54.148;12.174;2023-05-08T12:57:47;102552.50;;;24.31;28.89
53514;BME280;39768;54.148;12.174;2023-05-08T13:01:51;102559.13;;;24.23;26.95
53514;BME280;39768;54.148;12.174;2023-05-08T13:05:55;102547.28;;;22.86;26.80
53514;BME280;39768;54.148;12.174;2023-05-08T13:10:00;102541.03;;;23.79;27.57
53514;BME280;39768;54.148;12.174;2023-05-08T13:14:04;102544.72;;;24.00;27.17
53514;BME280;39768;54.148;12.174;2023-05-08T13:18:06;102531.81;;;23.61;28.32
53514;BME280;39768;54.148;12.174;2023-05-08T13:22:08;102524.25;;;24.13;28.67
53514;BME280;39768;54.148;12.174;2023-05-08T13:26:09;102516.69;;;23.99;29.48
53514;BME280;39768;54.148;12.174;2023-05-08T13:30:11;102516.72;;;24.41;28.64
53514;BME280;39768;54.148;12.174;2023-05-08T13:34:13;102518.09;;;23.87;26.87
53514;BME280;39768;54.148;12.174;2023-05-08T13:38:15;102521.66;;;23.19;26.98
53514;BME280;39768;54.148;12.174;2023-05-08T13:42:16;102510.50;;;24.17;27.38
53514;BME280;39768;54.148;12.174;2023-05-08T13:46:18;102513.13;;;24.41;26.34
53514;BME280;39768;54.148;12.174;2023-05-08T13:50:20;102501.06;;;24.48;26.80
53514;BME280;39768;54.148;12.174;2023-05-08T13:54:22;102492.22;;;23.79;26.82
53514;BME280;39768;54.148;12.174;2023-05-08T13:58:23;102480.59;;;23.97;27.02
53514;BME280;39768;54.148;12.174;2023-05-08T14:02:26;102477.97;;;23.96;27.31
53514;BME280;39768;54.148;12.174;2023-05-08T14:06:28;102478.03;;;24.36;26.68
53514;BME280;39768;54.148;12.174;2023-05-08T14:10:29;102461.34;;;23.38;28.03
53514;BME280;39768;54.148;12.174;2023-05-08T14:14:31;102457.16;;;23.74;28.18
53514;BME280;39768;54.148;12.174;2023-05-08T14:18:34;102459.06;;;24.14;26.77
53514;BME280;39768;54.148;12.174;2023-05-08T14:22:36;102440.31;;;23.88;27.03
53514;BME280;39768;54.148;12.174;2023-05-08T14:26:37;102455.03;;;24.24;26.97
53514;BME280;39768;54.148;12.174;2023-05-08T14:30:39;102430.00;;;23.96;27.48
53514;BME280;39768;54.148;12.174;2023-05-08T14:34:41;102438.56;;;24.07;26.73
53514;BME280;39768;54.148;12.174;2023-05-08T14:38:43;102444.69;;;23.90;26.50
53514;BME280;39768;54.148;12.174;2023-05-08T14:42:44;102437.09;;;23.78;26.39
53514;BME280;39768;54.148;12.174;2023-05-08T14:46:45;102429.47;;;23.88;27.63
53514;BME280;39768;54.148;12.174;2023-05-08T14:50:47;102442.00;;;23.90;25.73
53514;BME280;39768;54.148;12.174;2023-05-08T14:54:55;102444.69;;;23.47;27.09
53514;BME280;39768;54.148;12.174;2023-05-08T14:58:59;102438.09;;;23.76;27.21
53514;BME280;39768;54.148;12.174;2023-05-08T15:03:00;102432.69;;;23.54;26.57
53514;BME280;39768;54.148;12.174;2023-05-08T15:07:02;102441.09;;;23.90;26.07
53514;BME280;39768;54.148;12.174;2023-05-08T15:11:03;102431.28;;;24.30;26.09
53514;BME280;39768;54.148;12.174;2023-05-08T15:15:05;102429.75;;;23.37;27.03
53514;BME280;39768;54.148;12.174;2023-05-08T15:19:07;102424.38;;;24.21;27.38
53514;BME280;39768;54.148;12.174;2023-05-08T15:23:09;102414.69;;;24.15;27.26
53514;BME280;39768;54.148;12.174;2023-05-08T15:27:11;102407.66;;;23.69;27.58
53514;BME280;39768;54.148;12.174;2023-05-08T15:31:13;102408.63;;;23.45;26.92
53514;BME280;39768;54.148;12.174;2023-05-08T15:35:14;102414.47;;;24.20;26.34
53514;BME280;39768;54.148;12.174;2023-05-08T15:39:16;102414.22;;;23.64;26.85
53514;BME280;39768;54.148;12.174;2023-05-08T15:43:18;102413.09;;;23.46;26.67
53514;BME280;39768;54.148;12.174;2023-05-08T15:47:20;102407.72;;;23.68;27.23
53514;BME280;39768;54.148;12.174;2023-05-08T15:51:23;102405.94;;;24.09;26.54
53514;BME280;39768;54.148;12.174;2023-05-08T15:55:25;102394.59;;;24.19;26.20
53514;BME280;39768;54.148;12.174;2023-05-08T15:59:26;102389.09;;;24.21;25.97
53514;BME280;39768;54.148;12.174;2023-05-08T16:03:28;102382.19;;;24.34;26.41
53514;BME280;39768;54.148;12.174;2023-05-08T16:07:30;102367.84;;;24.32;26.78
53514;BME280;39768;54.148;12.174;2023-05-08T16:11:32;102369.59;;;25.10;26.13
53514;BME280;39768;54.148;12.174;2023-05-08T16:15:33;102376.88;;;24.33;26.56
53514;BME280;39768;54.148;12.174;2023-05-08T16:19:36;102371.41;;;23.72;27.51
53514;BME280;39768;54.148;12.174;2023-05-08T16:23:38;102366.75;;;23.30;26.69
53514;BME280;39768;54.148;12.174;2023-05-08T16:27:40;102369.25;;;24.00;26.56
53514;BME280;39768;54.148;12.174;2023-05-08T16:31:41;102369.44;;;24.36;27.06
53514;BME280;39768;54.148;12.174;2023-05-08T16:35:43;102374.28;;;24.30;26.64
53514;BME280;39768;54.148;12.174;2023-05-08T16:39:44;102376.19;;;25.23;25.50
53514;BME280;39768;54.148;12.174;2023-05-08T16:43:46;102369.09;;;25.02;25.91
53514;BME280;39768;54.148;12.174;2023-05-08T16:47:47;102369.47;;;26.02;25.47
53514;BME280;39768;54.148;12.174;2023-05-08T16:51:49;102362.66;;;25.76;24.57
53514;BME280;39768;54.148;12.174;2023-05-08T16:55:51;102368.19;;;26.26;23.99
53514;BME280;39768;54.148;12.174;2023-05-08T16:59:52;102365.31;;;27.88;23.05
53514;BME280;39768;54.148;12.174;2023-05-08T17:03:54;102374.00;;;28.09;22.65
53514;BME280;39768;54.148;12.174;2023-05-08T17:07:55;102371.72;;;27.42;23.85
53514;BME280;39768;54.148;12.174;2023-05-08T17:11:57;102382.28;;;28.23;22.81
53514;BME280;39768;54.148;12.174;2023-05-08T17:15:59;102368.81;;;27.29;23.97
53514;BME280;39768;54.148;12.174;2023-05-08T17:20:01;102367.94;;;26.97;24.25
53514;BME280;39768;54.148;12.174;2023-05-08T17:24:03;102368.75;;;25.98;26.04
53514;BME280;39768;54.148;12.174;2023-05-08T17:28:04;102360.56;;;25.98;25.91
53514;BME280;39768;54.148;12.174;2023-05-08T17:32:06;102360.56;;;25.28;26.42
53514;BME280;39768;54.148;12.174;2023-05-08T17:36:08;102350.44;;;24.94;27.66
53514;BME280;39768;54.148;12.174;2023-05-08T17:40:10;102352.13;;;25.15;28.24
53514;BME280;39768;54.148;12.174;2023-05-08T17:44:12;102358.50;;;25.33;28.36
53514;BME280;39768;54.148;12.174;2023-05-08T17:48:13;102361.06;;;24.80;28.52
53514;BME280;39768;54.148;12.174;2023-05-08T17:52:15;102351.72;;;24.48;30.03
53514;BME280;39768;54.148;12.174;2023-05-08T17:56:33;102349.06;;;23.21;30.41
53514;BME280;39768;54.148;12.174;2023-05-08T18:01:42;102343.72;;;23.64;30.44
53514;BME280;39768;54.148;12.174;2023-05-08T18:05:44;102342.00;;;23.39;30.90
53514;BME280;39768;54.148;12.174;2023-05-08T18:09:45;102345.28;;;23.26;32.24
53514;BME280;39768;54.148;12.174;2023-05-08T18:13:47;102349.31;;;22.70;31.49
53514;BME280;39768;54.148;12.174;2023-05-08T18:17:49;102344.03;;;22.19;33.51
53514;BME280;39768;54.148;12.174;2023-05-08T18:21:51;102349.91;;;21.26;35.34
53514;BME280;39768;54.148;12.174;2023-05-08T18:31:51;102345.41;;;20.38;38.21
53514;BME280;39768;54.148;12.174;2023-05-08T18:35:52;102350.44;;;19.87;38.33
53514;BME280;39768;54.148;12.174;2023-05-08T18:39:54;102348.66;;;19.86;38.90
53514;BME280;39768;54.148;12.174;2023-05-08T18:43:55;102340.56;;;19.52;38.60
53514;BME280;39768;54.148;12.174;2023-05-08T18:47:57;102339.56;;;19.19;39.84
53514;BME280;39768;54.148;12.174;2023-05-08T18:51:59;102340.50;;;18.80;39.82
53514;BME280;39768;54.148;12.174;2023-05-08T18:56:01;102345.41;;;18.59;41.14
53514;BME280;39768;54.148;12.174;2023-05-08T19:00:05;102342.66;;;18.62;40.74
53514;BME280;39768;54.148;12.174;2023-05-08T19:04:08;102349.19;;;18.49;41.27
53514;BME280;39768;54.148;12.174;2023-05-08T19:08:09;102346.88;;;17.85;41.27
53514;BME280;39768;54.148;12.174;2023-05-08T19:12:11;102348.75;;;18.26;41.61
53514;BME280;39768;54.148;12.174;2023-05-08T19:16:12;102343.94;;;17.97;42.37
53514;BME280;39768;54.148;12.174;2023-05-08T19:20:14;102352.13;;;17.91;42.75
53514;BME280;39768;54.148;12.174;2023-05-08T19:24:16;102349.06;;;17.61;42.99
53514;BME280;39768;54.148;12.174;2023-05-08T19:28:20;102360.97;;;17.45;43.57
53514;BME280;39768;54.148;12.174;2023-05-08T19:32:22;102354.88;;;17.34;43.70
53514;BME280;39768;54.148;12.174;2023-05-08T19:36:23;102351.25;;;17.37;43.83
53514;BME280;39768;54.148;12.174;2023-05-08T19:40:25;102350.69;;;17.16;43.72
53514;BME280;39768;54.148;12.174;2023-05-08T19:44:26;102354.16;;;17.23;44.51
53514;BME280;39768;54.148;12.174;2023-05-08T19:48:28;102356.97;;;17.14;44.55
53514;BME280;39768;54.148;12.174;2023-05-08T19:52:30;102353.59;;;17.01;44.17
53514;BME280;39768;54.148;12.174;2023-05-08T19:56:31;102350.84;;;16.35;46.04
53514;BME280;39768;54.148;12.174;2023-05-08T20:00:33;102357.44;;;16.82;44.98
53514;BME280;39768;54.148;12.174;2023-05-08T20:04:35;102359.09;;;16.20;45.59
53514;BME280;39768;54.148;12.174;2023-05-08T20:08:56;102368.81;;;16.32;45.45
53514;BME280;39768;54.148;12.174;2023-05-08T20:12:58;102362.88;;;16.02;46.20
53514;BME280;39768;54.148;12.174;2023-05-08T20:16:59;102357.56;;;15.95;47.43
53514;BME280;39768;54.148;12.174;2023-05-08T20:21:01;102364.44;;;16.21;47.50
53514;BME280;39768;54.148;12.174;2023-05-08T20:25:02;102346.41;;;16.34;46.52
53514;BME280;39768;54.148;12.174;2023-05-08T20:29:05;102348.41;;;16.17;47.41
53514;BME280;39768;54.148;12.174;2023-05-08T20:33:06;102351.47;;;15.80;47.07
53514;BME280;39768;54.148;12.174;2023-05-08T20:37:08;102353.41;;;15.62;48.64
53514;BME280;39768;54.148;12.174;2023-05-08T20:41:10;102349.13;;;15.38;48.47
53514;BME280;39768;54.148;12.174;2023-05-08T20:45:11;102342.81;;;15.46;49.11
53514;BME280;39768;54.148;12.174;2023-05-08T20:49:13;102341.13;;;15.38;49.61
53514;BME280;39768;54.148;12.174;2023-05-08T20:53:14;102343.22;;;14.93;49.57
53514;BME280;39768;54.148;12.174;2023-05-08T20:57:16;102343.03;;;15.17;49.33
53514;BME280;39768;54.148;12.174;2023-05-08T21:01:18;102340.13;;;15.46;48.01
53514;BME280;39768;54.148;12.174;2023-05-08T21:05:21;102334.84;;;15.40;47.40
53514;BME280;39768;54.148;12.174;2023-05-08T21:09:23;102335.53;;;15.68;47.68
53514;BME280;39768;54.148;12.174;2023-05-08T21:13:24;102338.34;;;15.47;47.63
53514;BME280;39768;54.148;12.174;2023-05-08T21:17:26;102331.94;;;15.72;47.02
53514;BME280;39768;54.148;12.174;2023-05-08T21:21:27;102333.09;;;15.33;47.68
53514;BME280;39768;54.148;12.174;2023-05-08T21:25:29;102328.88;;;15.02;47.80
53514;BME280;39768;54.148;12.174;2023-05-08T21:29:31;102330.44;;;15.33;47.20
53514;BME280;39768;54.148;12.174;2023-05-08T21:33:32;102328.00;;;15.01;47.87